Time;durP1;ratioP1;P1;durP2;ratioP2;P2;SDS_P1;SDS_P2;PMS_P1;PMS_P2;Temp;Humidity;BMP_temperature;BMP_pressure;BME280_temperature;BME280_humidity;BME280_pressure;Samples;Min_cycle;Max_cycle;Signal;HPM_P1;HPM_P2
2023/04/20 00:00:10;;;;;;;49.50;20.40;;;;;;;13.59;76.69;100175.22;5092994;28;20043;-84
2023/04/20 00:02:38;;;;;;;40.10;18.92;;;;;;;13.63;76.61;100176.63;5069791;28;20024;-86
2023/04/20 00:05:08;;;;;;;28.13;17.05;;;;;;;13.58;77.03;100170.81;5069551;28;20507;-84
2023/04/20 00:07:34;;;;;;;37.88;21.48;;;;;;;13.59;76.84;100170.66;5017580;28;20097;-85
2023/04/20 00:10:00;;;;;;;35.67;19.23;;;;;;;13.58;77.06;100170.81;5069372;28;20035;-84
2023/04/20 00:12:25;;;;;;;25.80;17.83;;;;;;;13.44;76.83;100156.00;5069311;28;20028;-83
2023/04/20 00:14:52;;;;;;;28.77;19.00;;;;;;;13.49;76.92;100169.03;5069481;28;20055;-86
2023/04/20 00:17:17;;;;;;;30.65;20.33;;;;;;;13.48;77.28;100167.34;5069617;28;20599;-87
2023/04/20 00:19:43;;;;;;;46.42;20.05;;;;;;;13.44;77.23;100160.56;5069201;28;20032;-84
2023/04/20 00:22:08;;;;;;;27.73;19.83;;;;;;;13.50;77.15;100165.34;5069165;28;20140;-83
2023/04/20 00:24:34;;;;;;;35.92;22.02;;;;;;;13.52;77.40;100166.03;5069333;28;20032;-86
2023/04/20 00:26:59;;;;;;;42.10;21.67;;;;;;;13.45;77.46;100171.22;5068715;28;20047;-83
2023/04/20 00:29:25;;;;;;;39.55;20.30;;;;;;;13.47;77.47;100165.66;5069691;28;20025;-85
2023/04/20 00:31:50;;;;;;;41.10;21.17;;;;;;;13.50;77.33;100160.78;5051452;28;20415;-84
2023/04/20 00:34:16;;;;;;;27.70;17.77;;;;;;;13.49;77.25;100169.03;5069670;28;20028;-85
2023/04/20 00:36:41;;;;;;;33.83;19.38;;;;;;;13.48;77.34;100160.09;5069276;28;20479;-84
2023/04/20 00:39:07;;;;;;;30.10;19.13;;;;;;;13.45;77.66;100167.66;5069235;28;20033;-82
2023/04/20 00:41:32;;;;;;;25.10;18.90;;;;;;;13.46;77.21;100163.94;5050969;28;20024;-85
2023/04/20 00:43:57;;;;;;;43.70;19.67;;;;;;;13.48;77.47;100161.97;5069751;28;20083;-81
2023/04/20 00:46:23;;;;;;;29.45;19.50;;;;;;;13.33;77.21;100133.78;5070028;28;20504;-84
2023/04/20 00:48:52;;;;;;;31.67;18.92;;;;;;;13.48;77.56;100162.81;5069919;28;20476;-83
2023/04/20 00:51:22;;;;;;;32.47;17.92;;;;;;;13.49;77.31;100164.47;5070154;28;20480;-85
2023/04/20 00:53:48;;;;;;;31.02;19.45;;;;;;;13.48;77.14;100157.41;5081371;28;20051;-81
2023/04/20 00:56:15;;;;;;;23.05;16.75;;;;;;;13.41;76.82;100160.88;5091453;28;20088;-81
2023/04/20 00:58:43;;;;;;;37.97;17.42;;;;;;;13.43;77.28;100166.94;5078426;28;20028;-85
2023/04/20 01:01:09;;;;;;;32.08;18.40;;;;;;;13.41;77.57;100156.31;5069916;28;20522;-84
2023/04/20 01:03:35;;;;;;;30.90;18.27;;;;;;;13.37;77.54;100154.91;5069806;28;20056;-85
2023/04/20 01:06:01;;;;;;;25.40;17.85;;;;;;;13.43;77.90;100148.03;5069084;28;20120;-85
2023/04/20 01:08:27;;;;;;;32.33;18.60;;;;;;;13.40;77.64;100151.06;5069508;28;20077;-84
2023/04/20 01:10:56;;;;;;;28.25;17.27;;;;;;;13.42;77.60;100146.38;5068658;28;20031;-85
2023/04/20 01:13:22;;;;;;;26.45;18.38;;;;;;;13.39;77.84;100152.91;5069560;28;21064;-85
2023/04/20 01:15:48;;;;;;;88.07;23.02;;;;;;;13.33;77.99;100145.41;5069364;28;20025;-86
2023/04/20 01:18:14;;;;;;;40.15;19.40;;;;;;;13.24;77.92;100143.63;5069456;28;20032;-84
2023/04/20 01:20:39;;;;;;;43.33;20.75;;;;;;;13.26;78.23;100138.09;5068690;28;20139;-85
2023/04/20 01:23:05;;;;;;;36.45;17.42;;;;;;;13.37;77.71;100159.47;5068554;28;20036;-85
2023/04/20 01:25:30;;;;;;;30.25;14.85;;;;;;;13.38;77.54;100151.22;5050985;28;20045;-84
2023/04/20 01:27:56;;;;;;;24.05;16.33;;;;;;;13.39;77.61;100152.06;5068341;28;20055;-86
2023/04/20 01:30:21;;;;;;;35.90;16.13;;;;;;;13.29;77.55;100145.88;5070063;28;20028;-84
2023/04/20 01:32:47;;;;;;;28.05;15.90;;;;;;;13.07;77.94;100130.94;5068959;28;20035;-85
2023/04/20 01:35:12;;;;;;;35.50;16.30;;;;;;;13.27;77.89;100153.31;5069087;28;20031;-86
2023/04/20 01:37:39;;;;;;;34.80;16.58;;;;;;;13.25;77.94;100158.00;5072039;28;20609;-84
2023/04/20 01:40:08;;;;;;;42.42;16.05;;;;;;;13.24;77.65;100150.91;5068883;28;20028;-84
2023/04/20 01:42:33;;;;;;;23.10;15.48;;;;;;;13.26;77.84;100152.44;5069112;28;20143;-85
2023/04/20 01:44:59;;;;;;;54.13;17.55;;;;;;;13.18;77.66;100132.63;5051973;28;20108;-86
2023/04/20 01:47:24;;;;;;;29.40;14.73;;;;;;;13.22;77.71;100150.19;5072252;28;20126;-85
2023/04/20 01:49:50;;;;;;;30.83;15.13;;;;;;;13.15;77.79;100144.56;5081546;28;20032;-83
2023/04/20 01:52:15;;;;;;;36.75;14.65;;;;;;;13.14;77.80;100153.69;5090678;28;20055;-82
2023/04/20 01:54:41;;;;;;;22.33;13.32;;;;;;;13.16;77.50;100156.22;5076103;28;20111;-83
2023/04/20 01:57:06;;;;;;;27.10;15.00;;;;;;;13.01;77.53;100145.91;5074597;28;20115;-85
2023/04/20 01:59:31;;;;;;;24.08;13.38;;;;;;;13.08;77.80;100149.75;5072417;28;20028;-86
2023/04/20 02:01:57;;;;;;;29.67;13.68;;;;;;;13.05;77.83;100150.03;5071837;28;20033;-85
2023/04/20 02:04:23;;;;;;;28.20;13.15;;;;;;;13.03;77.80;100152.00;5072601;28;20025;-84
2023/04/20 02:06:49;;;;;;;25.90;13.20;;;;;;;13.01;77.60;100164.81;5072395;28;20407;-85
2023/04/20 02:09:14;;;;;;;20.50;13.23;;;;;;;12.98;77.94;100154.31;5073091;28;20040;-85
2023/04/20 02:11:40;;;;;;;23.15;12.73;;;;;;;12.98;77.99;100159.72;5074891;28;20055;-85
2023/04/20 02:14:05;;;;;;;20.67;12.93;;;;;;;12.99;77.76;100168.66;5075425;28;20403;-84
2023/04/20 02:16:31;;;;;;;18.92;11.63;;;;;;;12.98;77.72;100173.22;5073398;28;20798;-85
2023/04/20 02:18:57;;;;;;;21.77;12.27;;;;;;;12.94;77.53;100173.66;5072668;28;20032;-85
2023/04/20 02:21:22;;;;;;;64.55;16.77;;;;;;;12.85;77.69;100164.63;5072427;28;20025;-86
2023/04/20 02:23:48;;;;;;;44.17;13.93;;;;;;;12.86;78.39;100166.31;5072882;28;20546;-85
2023/04/20 02:26:13;;;;;;;31.52;12.35;;;;;;;12.81;78.39;100165.91;5073336;28;20177;-84
2023/04/20 02:28:39;;;;;;;23.88;13.38;;;;;;;12.75;79.35;100161.09;5073156;28;20056;-84
2023/04/20 02:31:05;;;;;;;23.17;12.40;;;;;;;12.73;79.76;100160.41;5073497;28;20369;-85
2023/04/20 02:33:31;;;;;;;24.08;12.45;;;;;;;12.71;80.32;100166.97;5074202;28;20033;-84
2023/04/20 02:35:56;;;;;;;28.52;11.73;;;;;;;12.69;80.50;100161.72;5055393;28;20395;-87
2023/04/20 02:38:21;;;;;;;39.05;13.82;;;;;;;12.72;80.68;100147.91;5076651;28;20077;-85
2023/04/20 02:40:47;;;;;;;17.30;10.52;;;;;;;12.77;80.25;100150.19;5087143;28;20119;-82
2023/04/20 02:43:12;;;;;;;31.60;11.40;;;;;;;12.84;80.58;100145.88;5087399;28;20035;-82
2023/04/20 02:45:38;;;;;;;33.42;10.85;;;;;;;12.80;80.36;100134.53;5084723;28;20106;-85
2023/04/20 02:48:03;;;;;;;21.35;10.02;;;;;;;12.84;80.30;100135.91;5085950;28;20051;-84
2023/04/20 02:50:29;;;;;;;33.28;11.93;;;;;;;12.92;80.16;100152.22;5093430;28;20040;-84
2023/04/20 02:52:54;;;;;;;26.05;10.57;;;;;;;12.97;80.18;100141.81;5086551;28;20123;-87
2023/04/20 02:55:20;;;;;;;25.25;11.48;;;;;;;12.92;80.12;100130.63;5071485;28;20123;-88
2023/04/20 02:57:45;;;;;;;17.40;8.93;;;;;;;13.04;79.90;100142.91;5071781;28;20108;-86
2023/04/20 03:00:12;;;;;;;18.52;9.90;;;;;;;12.99;79.45;100129.03;5071291;28;20029;-86
2023/04/20 03:02:38;;;;;;;22.50;10.93;;;;;;;13.07;79.49;100139.91;5070868;28;20058;-84
2023/04/20 03:05:04;;;;;;;18.73;9.98;;;;;;;13.13;79.23;100140.31;5070930;28;20032;-85
2023/04/20 03:07:30;;;;;;;34.35;10.75;;;;;;;13.18;79.23;100138.03;5070965;28;20067;-85
2023/04/20 03:09:55;;;;;;;27.52;10.82;;;;;;;13.15;79.16;100130.25;5035686;28;20091;-88
2023/04/20 03:12:21;;;;;;;52.70;12.48;;;;;;;13.22;78.95;100134.84;5071308;28;20024;-86
2023/04/20 03:14:47;;;;;;;33.67;10.20;;;;;;;13.18;79.04;100138.03;5070914;28;20021;-86
2023/04/20 03:17:12;;;;;;;30.55;14.65;;;;;;;13.21;78.49;100132.31;5070719;28;20067;-87
2023/04/20 03:19:37;;;;;;;28.98;11.40;;;;;;;13.26;78.61;100136.25;5071348;28;20044;-86
2023/04/20 03:22:03;;;;;;;42.40;10.35;;;;;;;13.31;78.53;100138.47;5071355;28;20060;-85
2023/04/20 03:24:28;;;;;;;111.75;15.40;;;;;;;13.31;77.86;100146.56;5071005;28;20097;-86
2023/04/20 03:26:54;;;;;;;69.20;13.95;;;;;;;13.28;78.07;100138.78;5071060;28;20149;-86
2023/04/20 03:29:19;;;;;;;38.83;12.80;;;;;;;13.28;78.24;100136.09;5070947;28;20049;-86
2023/04/20 03:31:45;;;;;;;25.85;11.35;;;;;;;13.30;78.14;100134.09;5070787;28;20482;-85
2023/04/20 03:34:10;;;;;;;43.05;13.13;;;;;;;13.24;78.15;100126.63;5070834;28;20042;-86
2023/04/20 03:36:36;;;;;;;46.08;14.00;;;;;;;13.20;78.47;100119.81;5070696;28;20020;-84
2023/04/20 03:39:03;;;;;;;40.55;14.98;;;;;;;13.22;78.51;100123.19;5070928;28;20024;-86
2023/04/20 03:41:29;;;;;;;36.80;15.05;;;;;;;13.19;79.07;100128.91;5071201;28;20587;-85
2023/04/20 03:43:55;;;;;;;49.53;16.38;;;;;;;13.14;79.33;100131.22;5073470;28;20028;-90
2023/04/20 03:46:20;;;;;;;32.55;15.50;;;;;;;13.20;79.53;100133.31;5091789;28;20024;-82
2023/04/20 03:48:46;;;;;;;51.28;18.98;;;;;;;13.15;79.35;100128.34;5077239;28;20024;-81
2023/04/20 03:51:11;;;;;;;45.95;18.00;;;;;;;13.20;79.51;100142.28;5078814;28;20400;-88
2023/04/20 03:53:37;;;;;;;37.42;20.42;;;;;;;13.11;80.13;100142.34;5071146;28;20028;-84
2023/04/20 03:56:02;;;;;;;33.97;21.58;;;;;;;13.12;80.60;100149.44;5070600;28;20036;-91
2023/04/20 03:58:28;;;;;;;31.45;19.23;;;;;;;13.08;81.23;100155.16;5072350;28;20025;-88
2023/04/20 04:01:00;;;;;;;39.65;21.33;;;;;;;13.00;81.56;100141.50;5072076;28;20442;-91
2023/04/20 04:03:26;;;;;;;35.45;22.45;;;;;;;13.08;82.16;100144.34;5072906;28;20024;-89
2023/04/20 04:05:51;;;;;;;35.85;21.33;;;;;;;13.09;82.27;100146.03;5072284;28;20024;-92
2023/04/20 04:08:17;;;;;;;36.65;22.98;;;;;;;13.13;82.29;100149.28;5077690;28;20025;-92
2023/04/20 04:10:42;;;;;;;38.85;23.00;;;;;;;13.13;82.45;100140.31;5083687;28;20356;-92
2023/04/20 04:13:07;;;;;;;77.65;26.20;;;;;;;13.26;82.12;100146.19;5088551;28;20158;-85
2023/04/20 04:15:33;;;;;;;113.95;29.38;;;;;;;13.24;82.10;100134.72;5076001;28;20087;-92
2023/04/20 04:17:58;;;;;;;52.67;24.45;;;;;;;13.35;82.18;100142.56;5075283;28;20161;-90
2023/04/20 04:20:24;;;;;;;47.97;23.92;;;;;;;13.39;82.05;100147.50;5073474;28;20035;-88
2023/04/20 04:22:50;;;;;;;66.55;26.95;;;;;;;13.43;81.83;100143.50;5074039;28;20068;-91
2023/04/20 04:25:16;;;;;;;51.35;25.85;;;;;;;13.49;82.05;100148.28;5075338;28;20064;-88
2023/04/20 04:27:42;;;;;;;86.10;26.85;;;;;;;13.58;81.71;100154.59;5074214;28;20070;-92
2023/04/20 04:30:09;;;;;;;81.35;27.85;;;;;;;13.53;81.69;100143.41;5072641;28;20074;-95
2023/04/20 04:32:35;;;;;;;76.28;26.63;;;;;;;13.65;81.61;100152.97;5074494;28;20492;-89
2023/04/20 04:35:01;;;;;;;101.20;28.25;;;;;;;13.79;81.12;100143.47;5059482;28;20043;-89
2023/04/20 04:37:26;;;;;;;76.65;28.25;;;;;;;13.78;81.16;100142.63;5075116;28;20070;-85
2023/04/20 04:39:52;;;;;;;57.05;27.67;;;;;;;13.93;81.30;100151.00;5072512;28;20051;-88
2023/04/20 04:42:18;;;;;;;54.58;26.45;;;;;;;13.98;80.71;100151.38;5084475;28;20060;-82
2023/04/20 04:44:43;;;;;;;58.53;23.73;;;;;;;13.99;80.36;100145.81;5093743;28;20104;-83
2023/04/20 04:47:10;;;;;;;58.08;23.45;;;;;;;13.86;80.21;100156.19;5085424;28;20082;-87
2023/04/20 04:49:36;;;;;;;54.97;26.00;;;;;;;13.89;80.49;100150.47;5070128;28;20028;-85
2023/04/20 04:52:01;;;;;;;55.17;23.75;;;;;;;13.93;80.70;100135.63;5071428;28;20510;-83
2023/04/20 04:54:27;;;;;;;45.95;24.00;;;;;;;14.02;80.49;100150.91;5069881;28;20024;-82
2023/04/20 04:56:52;;;;;;;44.20;26.48;;;;;;;14.06;80.86;100152.31;5073707;28;21071;-82
2023/04/20 04:59:18;;;;;;;55.85;27.02;;;;;;;14.03;80.51;100159.88;5066093;28;20031;-87
2023/04/20 05:01:43;;;;;;;68.38;30.00;;;;;;;14.00;80.84;100154.78;5067804;28;20053;-84
2023/04/20 05:04:08;;;;;;;59.25;29.08;;;;;;;14.00;80.98;100166.47;5066763;28;20020;-79
2023/04/20 05:06:34;;;;;;;55.28;25.70;;;;;;;14.01;81.24;100162.72;5067462;28;20036;-80
2023/04/20 05:08:59;;;;;;;46.08;25.58;;;;;;;14.06;81.31;100179.34;5068177;28;20492;-79
2023/04/20 05:11:25;;;;;;;56.70;28.80;;;;;;;14.05;81.16;100168.66;5067189;28;20028;-80
2023/04/20 05:13:50;;;;;;;59.97;27.52;;;;;;;14.12;80.90;100173.31;5067153;28;20560;-80
2023/04/20 05:16:16;;;;;;;52.85;25.33;;;;;;;14.21;81.17;100168.78;5067524;28;20626;-78
2023/04/20 05:18:41;;;;;;;42.22;23.48;;;;;;;14.32;80.58;100178.47;5066738;28;20104;-80
2023/04/20 05:21:07;;;;;;;39.97;21.73;;;;;;;14.33;80.15;100174.81;5067286;28;20090;-80
2023/04/20 05:23:32;;;;;;;49.80;20.80;;;;;;;14.40;80.28;100176.69;5069521;28;20029;-87
2023/04/20 05:25:58;;;;;;;28.40;19.17;;;;;;;14.47;79.76;100176.91;5070280;28;20040;-84
2023/04/20 05:28:23;;;;;;;40.72;19.50;;;;;;;14.51;79.90;100165.63;5069641;28;20912;-86
2023/04/20 05:30:48;;;;;;;53.97;21.10;;;;;;;14.60;79.25;100172.75;5052839;28;20457;-84
2023/04/20 05:33:14;;;;;;;29.23;18.23;;;;;;;14.53;79.10;100170.84;5071807;28;20028;-87
2023/04/20 05:35:39;;;;;;;29.60;15.73;;;;;;;14.53;78.62;100168.16;5072883;28;20028;-87
2023/04/20 05:38:05;;;;;;;58.28;16.35;;;;;;;14.62;78.35;100172.59;5081356;28;20028;-83
2023/04/20 05:40:35;;;;;;;42.65;15.98;;;;;;;14.64;78.17;100168.72;5085819;28;20036;-80
2023/04/20 05:43:00;;;;;;;71.97;19.23;;;;;;;14.77;77.99;100172.84;5074586;28;20514;-85
2023/04/20 05:45:26;;;;;;;41.63;15.88;;;;;;;14.84;77.80;100169.31;5071320;28;20017;-82
2023/04/20 05:47:52;;;;;;;34.72;14.15;;;;;;;14.92;77.37;100176.63;5070866;28;20096;-81
2023/04/20 05:50:18;;;;;;;24.45;14.40;;;;;;;14.88;77.51;100177.97;5070499;28;20028;-80
2023/04/20 05:52:44;;;;;;;40.05;14.30;;;;;;;14.89;77.27;100183.19;5071031;28;20028;-80
2023/04/20 05:55:09;;;;;;;25.08;14.52;;;;;;;14.85;77.44;100167.47;5071012;28;20036;-82
2023/04/20 05:57:41;;;;;;;36.08;14.90;;;;;;;14.92;76.96;100174.75;5071325;28;20036;-81
2023/04/20 06:00:14;;;;;;;67.45;16.65;;;;;;;14.89;77.26;100182.38;5073011;28;20032;-86
2023/04/20 06:02:40;;;;;;;28.55;13.55;;;;;;;14.94;76.89;100186.28;5071734;28;20553;-86
2023/04/20 06:05:08;;;;;;;34.97;13.93;;;;;;;14.90;76.63;100179.47;5071623;28;20047;-89
2023/04/20 06:07:33;;;;;;;43.60;15.32;;;;;;;14.94;76.68;100180.88;5070803;28;20054;-84
2023/04/20 06:10:00;;;;;;;44.03;18.13;;;;;;;14.91;76.32;100181.19;5071147;28;20059;-83
2023/04/20 06:12:26;;;;;;;32.63;18.27;;;;;;;14.87;76.11;100179.81;5070278;28;20047;-83
2023/04/20 06:14:52;;;;;;;30.15;17.05;;;;;;;14.84;75.91;100173.88;5071243;28;20032;-82
2023/04/20 06:17:17;;;;;;;54.40;17.50;;;;;;;14.84;76.41;100173.88;5070602;28;20480;-85
2023/04/20 06:19:43;;;;;;;29.10;17.90;;;;;;;14.81;76.46;100175.06;5070436;28;20505;-84
2023/04/20 06:22:08;;;;;;;39.42;18.23;;;;;;;14.87;76.65;100168.97;5070351;28;20136;-81
2023/04/20 06:24:35;;;;;;;37.08;17.17;;;;;;;14.92;76.64;100172.03;5070408;28;20472;-83
2023/04/20 06:27:01;;;;;;;41.67;17.95;;;;;;;14.84;76.63;100163.91;5070120;28;20050;-82
2023/04/20 06:29:27;;;;;;;35.90;18.27;;;;;;;14.99;76.62;100173.09;5070746;28;20033;-84
2023/04/20 06:31:53;;;;;;;58.28;17.80;;;;;;;15.16;75.96;100184.84;5070786;28;20087;-81
2023/04/20 06:34:19;;;;;;;35.13;16.50;;;;;;;15.18;75.28;100172.81;5076847;28;20043;-81
2023/04/20 06:36:45;;;;;;;34.67;18.05;;;;;;;15.08;75.19;100172.09;5087401;28;20036;-81
2023/04/20 06:39:10;;;;;;;31.98;17.38;;;;;;;15.08;75.55;100177.53;5079090;28;20043;-82
2023/04/20 06:41:37;;;;;;;35.03;17.98;;;;;;;15.07;75.61;100175.84;5070284;28;20036;-82
2023/04/20 06:44:03;;;;;;;30.58;16.30;;;;;;;15.16;75.63;100169.44;5034256;28;20517;-83
2023/04/20 06:46:28;;;;;;;33.45;16.65;;;;;;;15.37;75.56;100165.41;5069979;28;20024;-82
2023/04/20 06:48:54;;;;;;;49.75;21.45;;;;;;;15.50;75.58;100160.38;5070265;28;20031;-84
2023/04/20 06:51:19;;;;;;;26.10;15.45;;;;;;;15.55;73.93;100161.56;5070141;28;20028;-81
2023/04/20 06:53:45;;;;;;;41.35;15.77;;;;;;;15.67;73.61;100167.50;5069187;28;20395;-82
2023/04/20 06:56:11;;;;;;;33.35;17.25;;;;;;;15.81;73.62;100158.69;5071188;28;20107;-84
2023/04/20 06:58:36;;;;;;;46.42;16.20;;;;;;;15.94;73.25;100164.44;5071608;28;20032;-88
2023/04/20 07:01:02;;;;;;;26.10;14.02;;;;;;;16.01;72.43;100165.47;5075498;28;20476;-87
2023/04/20 07:03:27;;;;;;;41.53;14.15;;;;;;;16.09;71.99;100173.59;5075937;28;20093;-88
2023/04/20 07:05:52;;;;;;;19.35;12.80;;;;;;;16.13;72.11;100174.94;5074506;28;20048;-88
2023/04/20 07:08:19;;;;;;;23.85;12.77;;;;;;;16.09;72.59;100178.16;5086658;28;20036;-90
2023/04/20 07:10:44;;;;;;;26.23;14.82;;;;;;;16.03;73.18;100179.69;5092747;28;20065;-86
2023/04/20 07:13:09;;;;;;;20.48;11.95;;;;;;;16.07;73.29;100174.78;5089338;28;20020;-87
2023/04/20 07:15:35;;;;;;;25.48;12.98;;;;;;;15.79;74.11;100182.41;5091985;28;20037;-86
2023/04/20 07:18:00;;;;;;;21.52;13.23;;;;;;;15.84;74.71;100185.47;5091029;28;20505;-84
2023/04/20 07:20:26;;;;;;;19.58;12.55;;;;;;;15.89;74.50;100180.41;5084366;28;20491;-87
2023/04/20 07:22:51;;;;;;;17.23;11.07;;;;;;;15.84;74.47;100177.31;5070726;28;20036;-89
2023/04/20 07:25:17;;;;;;;20.60;12.70;;;;;;;15.96;73.85;100186.81;5073609;28;20148;-88
2023/04/20 07:27:42;;;;;;;17.42;12.60;;;;;;;16.03;73.76;100185.13;5075019;28;20052;-86
2023/04/20 07:30:09;;;;;;;23.58;11.82;;;;;;;16.07;73.56;100185.63;5077626;28;20020;-82
2023/04/20 07:32:35;;;;;;;32.45;13.20;;;;;;;16.18;73.59;100175.28;5095066;28;20032;-83
2023/04/20 07:35:02;;;;;;;23.25;12.25;;;;;;;16.25;72.73;100173.56;5075659;28;20035;-85
2023/04/20 07:37:28;;;;;;;32.25;14.57;;;;;;;16.47;72.90;100188.28;5052677;28;20507;-90
2023/04/20 07:39:54;;;;;;;16.02;11.93;;;;;;;16.49;72.29;100185.38;5052752;28;20021;-88
2023/04/20 07:42:20;;;;;;;21.67;11.63;;;;;;;16.47;71.91;100182.00;5070525;28;20034;-88
2023/04/20 07:44:46;;;;;;;45.20;15.15;;;;;;;16.48;71.26;100184.53;5070600;28;20043;-88
2023/04/20 07:47:12;;;;;;;42.40;13.15;;;;;;;16.65;71.96;100179.97;5070844;28;20085;-89
2023/04/20 07:49:39;;;;;;;23.95;13.45;;;;;;;16.77;71.46;100189.41;5070398;28;20020;-88
2023/04/20 07:52:05;;;;;;;48.28;15.13;;;;;;;16.78;70.53;100191.13;5020871;28;20789;-88
2023/04/20 07:54:31;;;;;;;42.17;13.98;;;;;;;16.95;69.89;100187.31;5073471;28;20028;-88
2023/04/20 07:56:57;;;;;;;20.48;13.15;;;;;;;17.10;68.96;100180.09;5072962;28;20020;-87
2023/04/20 07:59:22;;;;;;;22.85;14.10;;;;;;;17.12;67.42;100183.50;5053671;28;20101;-87
2023/04/20 08:01:48;;;;;;;34.97;15.10;;;;;;;17.17;66.81;100186.53;5052952;28;20465;-88
2023/04/20 08:04:13;;;;;;;26.42;15.07;;;;;;;17.13;66.19;100187.03;5070833;28;20016;-87
2023/04/20 08:06:39;;;;;;;196.43;29.45;;;;;;;17.15;67.36;100191.31;5070760;28;20051;-85
2023/04/20 08:09:04;;;;;;;57.25;16.33;;;;;;;17.27;66.45;100192.59;5071030;28;20104;-87
2023/04/20 08:11:30;;;;;;;36.03;15.20;;;;;;;17.25;66.31;100186.47;5070043;28;20033;-89
2023/04/20 08:13:55;;;;;;;78.90;19.08;;;;;;;17.18;65.44;100155.63;5054813;28;20576;-86
2023/04/20 08:16:20;;;;;;;27.40;13.85;;;;;;;17.18;64.69;100171.94;5071968;28;20081;-88
2023/04/20 08:18:46;;;;;;;20.08;12.90;;;;;;;17.14;64.77;100181.44;5070670;28;20178;-87
2023/04/20 08:21:11;;;;;;;23.38;13.60;;;;;;;17.25;64.79;100183.75;5071167;28;20186;-89
2023/04/20 08:23:37;;;;;;;32.10;15.35;;;;;;;17.36;64.90;100175.22;5074998;28;20551;-89
2023/04/20 08:26:05;;;;;;;27.48;12.63;;;;;;;17.44;64.82;100185.19;5056922;28;20021;-89
2023/04/20 08:28:31;;;;;;;26.40;12.23;;;;;;;17.29;63.49;100167.94;5089785;28;20040;-81
2023/04/20 08:30:56;;;;;;;22.23;11.30;;;;;;;17.19;63.60;100179.03;5094705;28;20056;-83
2023/04/20 08:33:21;;;;;;;60.70;15.48;;;;;;;17.11;63.67;100181.81;5079643;28;20207;-88
2023/04/20 08:35:50;;;;;;;25.35;12.20;;;;;;;16.95;64.29;100181.03;5071537;28;20560;-87
2023/04/20 08:38:16;;;;;;;23.55;11.77;;;;;;;16.96;65.00;100178.16;5058816;28;20384;-91
2023/04/20 08:40:42;;;;;;;32.35;11.45;;;;;;;17.00;64.67;100167.78;5077838;28;20078;-89
2023/04/20 08:43:08;;;;;;;28.02;9.75;;;;;;;17.04;64.76;100175.38;5078067;28;20127;-85
2023/04/20 08:45:33;;;;;;;23.85;9.60;;;;;;;17.10;64.42;100174.66;5079885;28;20107;-85
2023/04/20 08:48:04;;;;;;;30.70;10.43;;;;;;;17.14;64.67;100177.88;5083575;28;20353;-90
2023/04/20 08:50:30;;;;;;;27.02;9.95;;;;;;;16.97;64.12;100179.00;5086491;28;20036;-90
2023/04/20 08:52:56;;;;;;;27.88;10.43;;;;;;;16.79;64.06;100176.50;5077901;28;20496;-86
2023/04/20 08:55:22;;;;;;;19.52;9.80;;;;;;;16.66;64.41;100184.38;5078171;28;20033;-89
2023/04/20 08:57:50;;;;;;;17.73;8.23;;;;;;;16.54;64.84;100164.00;5060636;28;20028;-88
2023/04/20 09:00:17;;;;;;;26.88;9.27;;;;;;;16.55;65.87;100179.28;5079084;28;20102;-90
2023/04/20 09:02:51;;;;;;;16.33;9.60;;;;;;;16.60;65.94;100166.06;5082715;28;20036;-85
2023/04/20 09:05:25;;;;;;;50.55;12.63;;;;;;;16.86;66.75;100163.91;5086388;28;20035;-87
2023/04/20 09:07:52;;;;;;;12.20;7.43;;;;;;;17.05;65.16;100166.22;5080888;28;20123;-85
2023/04/20 09:10:23;;;;;;;18.80;7.97;;;;;;;16.92;63.44;100159.66;5079827;28;20033;-89
2023/04/20 09:12:48;;;;;;;27.48;8.85;;;;;;;16.80;63.60;100168.19;5077232;28;20534;-88
2023/04/20 09:15:27;;;;;;;49.25;10.98;;;;;;;16.59;64.85;100180.66;5075369;28;20028;-91
2023/04/20 09:17:53;;;;;;;25.30;9.55;;;;;;;16.37;65.54;100165.06;5057611;28;20044;-86
2023/04/20 09:20:33;;;;;;;21.50;9.93;;;;;;;16.27;66.41;100155.25;5062166;28;20384;-90
2023/04/20 09:23:28;;;;;;;14.18;8.77;;;;;;;16.21;66.77;100172.22;5079875;28;20028;-87
2023/04/20 09:25:53;;;;;;;11.85;9.20;;;;;;;16.13;66.92;100174.94;5015486;28;20154;-82
2023/04/20 09:28:19;;;;;;;15.63;9.20;;;;;;;16.17;67.52;100165.47;5016468;28;20091;-85
2023/04/20 09:30:46;;;;;;;17.83;8.88;;;;;;;16.26;67.26;100174.44;4996963;28;20050;-88
2023/04/20 09:33:13;;;;;;;12.70;8.18;;;;;;;16.22;67.15;100163.06;4993401;28;20590;-89
2023/04/20 09:35:43;;;;;;;19.52;7.35;;;;;;;16.38;67.30;100169.47;4976678;28;20052;-89
2023/04/20 09:38:10;;;;;;;16.23;7.00;;;;;;;16.63;66.82;100166.56;5000844;28;20069;-90
2023/04/20 09:40:37;;;;;;;9.32;4.68;;;;;;;16.83;65.65;100170.56;4996839;28;20034;-84
2023/04/20 09:43:16;;;;;;;5.15;4.20;;;;;;;16.98;65.28;100176.09;4995132;28;20050;-89
2023/04/20 09:45:43;;;;;;;26.10;6.32;;;;;;;16.98;65.25;100173.38;4995465;28;20081;-90
2023/04/20 09:48:09;;;;;;;9.05;3.97;;;;;;;17.09;65.08;100169.44;4978172;28;20038;-89
2023/04/20 09:50:38;;;;;;;6.90;2.97;;;;;;;17.31;64.59;100169.44;4995635;28;20108;-92
2023/04/20 09:53:04;;;;;;;15.05;3.60;;;;;;;17.47;63.98;100167.66;4992540;28;20026;-90
2023/04/20 09:55:33;;;;;;;8.90;3.13;;;;;;;17.30;63.45;100180.53;4992967;28;20066;-88
2023/04/20 09:58:03;;;;;;;5.82;3.42;;;;;;;16.92;65.43;100193.09;4992871;28;20045;-90
2023/04/20 10:00:29;;;;;;;16.85;5.10;;;;;;;16.63;67.73;100199.16;4990914;28;20587;-90
2023/04/20 10:02:55;;;;;;;35.55;5.35;;;;;;;16.33;68.40;100181.69;5053447;28;20037;-89
2023/04/20 10:05:33;;;;;;;16.63;6.43;;;;;;;16.27;68.69;100187.81;5072048;28;20023;-89
2023/04/20 10:08:00;;;;;;;28.02;6.90;;;;;;;16.38;69.00;100189.34;5071966;28;20119;-90
2023/04/20 10:10:25;;;;;;;21.33;7.10;;;;;;;16.57;68.75;100182.72;5072406;28;20078;-88
2023/04/20 10:12:54;;;;;;;21.73;6.50;;;;;;;16.76;68.24;100179.56;5075752;28;20032;-85
2023/04/20 10:15:26;;;;;;;8.57;5.88;;;;;;;16.85;67.16;100183.94;5076216;28;20028;-91
2023/04/20 10:17:52;;;;;;;16.30;6.43;;;;;;;16.99;66.80;100187.81;5076621;28;20063;-88
2023/04/20 10:20:23;;;;;;;17.35;5.78;;;;;;;17.09;65.28;100183.00;5058297;28;20040;-90
2023/04/20 10:22:50;;;;;;;13.48;6.53;;;;;;;17.12;65.45;100188.09;5094114;28;20032;-84
2023/04/20 10:25:22;;;;;;;24.92;6.03;;;;;;;17.11;64.80;100198.09;5096484;28;20031;-85
2023/04/20 10:28:14;;;;;;;14.88;6.55;;;;;;;17.04;64.78;100186.25;5077164;28;20115;-85
2023/04/20 10:30:50;;;;;;;13.88;6.05;;;;;;;17.07;65.06;100185.88;4990017;28;20150;-90
2023/04/20 10:33:16;;;;;;;11.30;6.15;;;;;;;17.06;64.82;100184.22;4989827;28;20181;-88
2023/04/20 10:35:47;;;;;;;47.53;7.70;;;;;;;17.16;64.64;100183.97;4994063;28;20567;-91
2023/04/20 10:38:13;;;;;;;92.43;11.20;;;;;;;17.13;63.55;100190.63;4990408;28;20113;-91
2023/04/20 10:40:39;;;;;;;14.77;4.50;;;;;;;16.83;64.04;100197.72;4990707;28;20113;-88
2023/04/20 10:43:17;;;;;;;12.55;5.85;;;;;;;16.82;65.18;100192.44;4990946;28;20431;-86
2023/04/20 10:45:42;;;;;;;21.13;6.80;;;;;;;16.79;64.90;100190.09;4991141;28;20026;-88
2023/04/20 10:48:09;;;;;;;17.05;5.07;;;;;;;16.94;65.17;100193.75;4991452;28;20045;-85
2023/04/20 10:50:34;;;;;;;96.75;13.95;;;;;;;17.09;65.08;100181.16;4990663;28;20029;-87
2023/04/20 10:53:00;;;;;;;8.73;4.93;;;;;;;17.38;64.79;100178.59;4990266;28;20038;-87
2023/04/20 10:55:25;;;;;;;10.05;5.68;;;;;;;17.60;63.78;100167.94;4989245;28;20034;-89
2023/04/20 10:57:51;;;;;;;10.13;4.82;;;;;;;17.77;62.77;100177.66;4992723;28;20034;-90
2023/04/20 11:00:23;;;;;;;7.90;4.07;;;;;;;17.77;61.98;100169.50;4992881;28;20101;-89
2023/04/20 11:02:49;;;;;;;17.52;5.93;;;;;;;17.62;62.50;100174.88;4977205;28;20038;-88
2023/04/20 11:05:16;;;;;;;18.88;6.78;;;;;;;17.71;62.09;100170.22;4995698;28;20032;-88
2023/04/20 11:07:54;;;;;;;16.30;7.47;;;;;;;17.45;61.64;100167.00;5051337;28;20115;-87